Weather observations for the past three days for
Beef Island
| Date | Time (ast) | Wind (mph) | Vis. (mi.) | Weather | Sky Cond. | Temperature (ºF) | Relative Humidity | Wind Chill (°F) | Heat Index (°F) | Pressure | Precipitation (in) | ||||||
|---|---|---|---|---|---|---|---|---|---|---|---|---|---|---|---|---|---|
| Air | Dwpt | 6 hour | altimeter (in) | sea level (mb) | 1 hr | 3 hr | 6 hr | ||||||||||
| Max. | Min. | ||||||||||||||||
| 05 | 14:00 | E 8 | 10.00 | Mostly Cloudy | BKN019 | 89.6 | 78.8 | 71% | 105 | 29.93 | 0.0 | ||||||
| 05 | 13:00 | E 8 | 10.00 | Mostly Cloudy | BKN020 | 87.8 | 78.8 | 75% | 102 | 29.94 | 0.0 | ||||||
| 05 | 12:00 | E 8 | 10.00 | Partly Cloudy | SCT020 | 87.8 | 77 | 70% | 100 | 29.96 | 0.0 | ||||||
| 05 | 11:00 | E 7 | 10.00 | Partly Cloudy | SCT020 | 86 | 78.8 | 79% | 99 | 29.97 | 0.0 | ||||||
| 05 | 10:00 | E 8 | 10.00 | Mostly Cloudy | BKN020 | 86 | 77 | 75% | 97 | 29.98 | 0.0 | ||||||
| 05 | 09:00 | E 8 | 10.00 | Mostly Cloudy | BKN020 | 86 | 78.8 | 79% | 99 | 29.97 | 0.0 | ||||||
| 05 | 08:00 | E 6 | 10.00 | Mostly Cloudy | BKN018 | 86 | 78.8 | 79% | 99 | 29.96 | 0.0 | ||||||
| 05 | 07:00 | E 5 | 10.00 | Partly Cloudy | SCT018 | 84.2 | 78.8 | 84% | 96 | 29.94 | 0.0 | ||||||
| 04 | 23:00 | NE 7 | 10.00 | A Few Clouds | FEW021 | 84.2 | 78.8 | 84% | 96 | 29.98 | 0.0 | ||||||
| 04 | 22:00 | E 6 | 10.00 | Partly Cloudy | SCT020 | 82.4 | 78.8 | 89% | 92 | 29.99 | 0.0 | ||||||
| 04 | 21:00 | E 6 | 10.00 | Partly Cloudy | SCT019 | 84.2 | 78.8 | 84% | 96 | 29.98 | 0.0 | ||||||
| 04 | 20:00 | E 5 | 10.00 | Partly Cloudy | SCT019 | 84.2 | 78.8 | 84% | 96 | 29.97 | 0.0 | ||||||
| 04 | 19:00 | E 7 | 10.00 | Showers in Vicinity | SCT018 | 84.2 | 77 | 79% | 94 | 29.96 | 0.0 | ||||||
| 04 | 18:00 | E 6 | 10.00 | Partly Cloudy | SCT018 | 84.2 | 77 | 79% | 94 | 29.97 | 0.0 | ||||||
| 04 | 17:00 | E 7 | 10.00 | Light Showers Rain | BKN018 | 86 | 78.8 | 79% | 99 | 29.94 | 0.0 | ||||||
| 04 | 16:00 | E 8 | 10.00 | Partly Cloudy | SCT019 | 87.8 | 77 | 70% | 100 | 29.94 | 0.0 | ||||||
| 04 | 15:00 | E 7 | 10.00 | Partly Cloudy | SCT020 | 87.8 | 78.8 | 75% | 102 | 0 | 0.0 | ||||||
| 04 | 14:00 | SE 8 | 10.00 | Partly Cloudy | SCT022 | 89.6 | 78.8 | 71% | 105 | 29.97 | 0.0 | ||||||
| 04 | 13:00 | SE 8 | 10.00 | Partly Cloudy | SCT020 | 87.8 | 78.8 | 75% | 102 | 29.99 | 0.0 | ||||||
| 04 | 12:00 | E 9 | 10.00 | Partly Cloudy | SCT020 | 87.8 | 78.8 | 75% | 102 | 30.01 | 0.0 | ||||||
| 04 | 11:00 | E 7 | 10.00 | A Few Clouds | FEW020 | 86 | 77 | 75% | 97 | 30.02 | 0.0 | ||||||
| 04 | 10:00 | SE 6 | 10.00 | Partly Cloudy | SCT019 | 86 | 78.8 | 79% | 99 | 30.02 | 0.0 | ||||||
| 04 | 09:00 | E 7 | 10.00 | Light Showers Rain | BKN018 | 84.2 | 77 | 79% | 94 | 30.01 | 0.0 | ||||||
| 04 | 08:00 | Vrbl 3 | 10.00 | Showers in Vicinity | FEW015CB SCT019 | 82.4 | 77 | 84% | 91 | 29.99 | 0.0 | ||||||
| 04 | 07:00 | E 5 | 10.00 | Showers in Vicinity | FEW015CB SCT019 | 82.4 | 77 | 84% | 91 | 29.98 | 0.0 | ||||||
| 03 | 21:00 | E 5 | 10.00 | A Few Clouds | FEW020 | 82.4 | 73.4 | 74% | 88 | 29.98 | 0.0 | ||||||
| 03 | 20:00 | E 3 | 10.00 | A Few Clouds | FEW020 | 82.4 | 73.4 | 74% | 88 | 29.98 | 0.0 | ||||||
| 03 | 19:00 | Vrbl 2 | 10.00 | A Few Clouds | FEW022 | 82.4 | 71.6 | 70% | 87 | 29.96 | 0.0 | ||||||
| 03 | 18:00 | Vrbl 3 | 10.00 | A Few Clouds | FEW022 | 84.2 | 71.6 | 66% | 90 | 29.96 | 0.0 | ||||||
| 03 | 17:00 | E 5 | 10.00 | A Few Clouds | FEW022 | 84.2 | 73.4 | 70% | 91 | 29.96 | 0.0 | ||||||
| 03 | 16:00 | SE 7 | 10.00 | A Few Clouds | FEW023 | 87.8 | 71.6 | 59% | 94 | 29.95 | 0.0 | ||||||
| 03 | 15:00 | SE 8 | 10.00 | A Few Clouds | FEW022 | 86 | 75.2 | 70% | 95 | 29.95 | 0.0 | ||||||
| 03 | 14:00 | SE 8 | 10.00 | A Few Clouds | FEW021 | 87.8 | 75.2 | 66% | 98 | 29.97 | 0.0 | ||||||
| 03 | 13:00 | SE 7 | 10.00 | A Few Clouds | FEW020 | 87.8 | 75.2 | 66% | 98 | 29.98 | 0.0 | ||||||
| 03 | 12:00 | SE 8 | 10.00 | A Few Clouds | FEW020 | 86 | 75.2 | 70% | 95 | 30 | 0.0 | ||||||
| 03 | 11:00 | E 7 | 10.00 | Partly Cloudy | SCT020 | 86 | 75.2 | 70% | 95 | 30.01 | 0.0 | ||||||
| 03 | 10:00 | E 7 | 10.00 | Partly Cloudy | SCT020 | 87.8 | 77 | 70% | 100 | 30.01 | 0.0 | ||||||
| 03 | 09:00 | E 6 | 10.00 | A Few Clouds | FEW022 | 86 | 75.2 | 70% | 95 | 29.99 | 0.0 | ||||||
| 03 | 08:00 | E 5 | 10.00 | A Few Clouds | FEW022 | 84.2 | 75.2 | 74% | 92 | 29.99 | 0.0 | ||||||
| 03 | 07:00 | Calm | 10.00 | A Few Clouds | FEW021 | 82.4 | 77 | 84% | 91 | 29.97 | 0.0 | ||||||
| 02 | 22:00 | NE 6 | 10.00 | A Few Clouds | FEW020 | 82.4 | 75.2 | 79% | 89 | 29.99 | 0.0 | ||||||
| 02 | 20:00 | NE 7 | 10.00 | A Few Clouds | FEW019 | 82.4 | 75.2 | 79% | 89 | 29.97 | 0.0 | ||||||
| 02 | 19:00 | NE 6 | 10.00 | Showers in Vicinity | SCT019 | 84.2 | 75.2 | 74% | 92 | 29.97 | 0.0 | ||||||
| 02 | 18:00 | NE 5 | 10.00 | Showers in Vicinity | BKN019 | 84.2 | 77 | 79% | 94 | 29.97 | 0.0 | ||||||
| 02 | 17:00 | E 6 | 10.00 | Showers in Vicinity | SCT019 | 86 | 73.4 | 66% | 93 | 29.97 | 0.0 | ||||||
| Date | Time (ast) | Wind (mph) | Vis. (mi.) | Weather | Sky Cond. | Air | Dwpt | Max. | Min. | Relative Humidity | Wind Chill (°F) | Heat Index (°F) | altimeter (in) | sea level (mb) | 1 hr | 3 hr | 6 hr |
| 6 hour | |||||||||||||||||
| Temperature (ºF) | Pressure | Precipitation (in) | |||||||||||||||